createdAt,value
2018-11-29T00:00:19.773Z,6.80
2018-11-29T00:05:13.090Z,6.80
2018-11-29T00:10:06.792Z,6.80
2018-11-29T00:15:00.068Z,6.90
2018-11-29T00:19:53.357Z,6.80
2018-11-29T00:24:46.660Z,6.90
2018-11-29T00:29:39.990Z,6.90
2018-11-29T00:34:33.234Z,7.00
2018-11-29T00:39:26.505Z,7.00
2018-11-29T00:44:19.777Z,7.10
2018-11-29T00:49:13.039Z,7.10
2018-11-29T00:54:06.309Z,7.00
2018-11-29T00:58:59.564Z,7.00
2018-11-29T01:03:52.858Z,7.00
2018-11-29T01:08:46.138Z,7.00
2018-11-29T01:13:40.028Z,7.00
2018-11-29T01:18:33.332Z,7.00
2018-11-29T01:23:26.589Z,7.00
2018-11-29T01:28:19.815Z,7.10
2018-11-29T01:33:13.132Z,7.00
2018-11-29T01:38:06.430Z,7.00
2018-11-29T01:42:59.707Z,7.00
2018-11-29T01:47:53.026Z,7.00
2018-11-29T01:52:46.320Z,7.00
2018-11-29T01:57:39.643Z,7.00
2018-11-29T02:02:32.937Z,7.00
2018-11-29T02:07:26.226Z,7.10
2018-11-29T02:12:19.488Z,7.00
2018-11-29T02:17:12.803Z,6.90
2018-11-29T02:22:06.175Z,6.90
2018-11-29T02:26:59.456Z,6.80
2018-11-29T02:31:52.954Z,6.90
2018-11-29T02:36:46.435Z,6.80
2018-11-29T02:41:39.694Z,6.90
2018-11-29T02:46:32.976Z,6.90
2018-11-29T02:51:26.259Z,6.90
2018-11-29T02:56:19.561Z,6.90
2018-11-29T03:01:13.400Z,6.90
2018-11-29T03:06:06.744Z,7.00
2018-11-29T03:11:00.074Z,7.00
2018-11-29T03:15:53.293Z,7.00
2018-11-29T03:20:46.538Z,7.00
2018-11-29T03:25:39.798Z,7.10
2018-11-29T03:30:33.078Z,7.10
2018-11-29T03:35:26.357Z,7.10
2018-11-29T03:40:19.691Z,7.10
2018-11-29T03:45:14.384Z,7.10
2018-11-29T03:50:12.304Z,7.00
2018-11-29T03:55:07.436Z,7.00
2018-11-29T04:00:00.758Z,7.00
2018-11-29T04:04:54.030Z,7.00
2018-11-29T04:09:47.292Z,7.00
2018-11-29T04:14:40.621Z,7.00
2018-11-29T04:19:34.689Z,7.00
2018-11-29T04:24:27.963Z,7.00
2018-11-29T04:29:21.267Z,6.90
2018-11-29T04:34:14.525Z,6.90
2018-11-29T04:39:08.574Z,6.90
2018-11-29T04:44:01.902Z,6.90
2018-11-29T04:48:55.144Z,7.00
2018-11-29T04:53:48.458Z,7.00
2018-11-29T04:58:41.714Z,7.00
2018-11-29T05:03:34.943Z,7.00
2018-11-29T05:08:28.173Z,5.30
2018-11-29T05:13:21.469Z,7.10
2018-11-29T05:18:14.779Z,7.10
2018-11-29T05:23:08.050Z,7.10
2018-11-29T05:28:01.339Z,7.10
2018-11-29T05:32:54.597Z,7.00
2018-11-29T05:37:47.924Z,7.00
2018-11-29T05:42:41.523Z,6.90
2018-11-29T05:47:34.802Z,6.90
2018-11-29T05:52:28.058Z,6.80
2018-11-29T05:57:21.328Z,6.70
2018-11-29T06:02:14.631Z,6.80
2018-11-29T06:07:07.989Z,6.70
2018-11-29T06:12:01.247Z,6.70
2018-11-29T06:16:54.523Z,6.80
2018-11-29T06:21:48.805Z,6.70
2018-11-29T06:26:42.051Z,6.70
2018-11-29T06:31:35.359Z,6.80
2018-11-29T06:36:28.621Z,6.80
2018-11-29T06:41:21.963Z,6.90
2018-11-29T06:46:15.214Z,6.90
2018-11-29T06:51:08.595Z,6.90
2018-11-29T06:56:01.882Z,7.00
2018-11-29T07:00:55.149Z,7.00
2018-11-29T07:05:48.440Z,7.00
2018-11-29T07:10:41.724Z,7.00
2018-11-29T07:15:35.056Z,6.90
2018-11-29T07:20:28.378Z,6.90
2018-11-29T07:25:22.175Z,6.70
2018-11-29T07:30:17.086Z,6.60
2018-11-29T07:35:12.126Z,6.50
2018-11-29T07:40:08.739Z,6.50
2018-11-29T07:45:02.080Z,6.50
2018-11-29T07:49:55.363Z,6.60
2018-11-29T07:54:48.641Z,6.60
2018-11-29T07:59:42.495Z,6.70
2018-11-29T08:04:35.771Z,6.80
2018-11-29T08:09:29.023Z,6.80
2018-11-29T08:14:22.287Z,6.90
2018-11-29T08:19:15.541Z,7.00
2018-11-29T08:24:08.875Z,7.00
2018-11-29T08:29:02.205Z,7.10
2018-11-29T08:33:55.489Z,7.20
2018-11-29T08:38:48.813Z,7.10
2018-11-29T08:43:42.073Z,7.10
2018-11-29T08:48:35.352Z,7.20
2018-11-29T08:53:28.684Z,7.10
2018-11-29T08:58:21.951Z,7.20
2018-11-29T09:03:15.232Z,7.20
2018-11-29T09:08:08.533Z,7.20
2018-11-29T09:13:01.789Z,7.20
2018-11-29T09:17:55.051Z,7.20
2018-11-29T09:22:48.401Z,7.10
2018-11-29T09:27:41.680Z,7.00
2018-11-29T09:32:34.969Z,6.90
2018-11-29T09:37:28.264Z,6.90
2018-11-29T09:42:21.505Z,6.80
2018-11-29T09:47:14.791Z,6.90
2018-11-29T09:52:08.076Z,6.90
2018-11-29T09:57:01.361Z,6.90
2018-11-29T10:01:54.635Z,6.80
2018-11-29T10:06:47.893Z,6.80
2018-11-29T10:11:41.225Z,6.80
2018-11-29T10:16:34.496Z,6.80
2018-11-29T10:21:27.745Z,6.70
2018-11-29T10:26:21.070Z,6.70
2018-11-29T10:31:15.097Z,6.60
2018-11-29T10:36:11.986Z,6.50
2018-11-29T10:41:09.079Z,6.50
2018-11-29T10:46:05.797Z,6.50
2018-11-29T10:51:03.464Z,6.50
2018-11-29T10:55:57.383Z,6.40
2018-11-29T11:00:56.245Z,6.50
2018-11-29T11:05:51.994Z,6.50
2018-11-29T11:10:45.357Z,6.60
2018-11-29T11:15:38.972Z,6.60
2018-11-29T11:20:32.287Z,6.50
2018-11-29T11:25:25.534Z,6.50
2018-11-29T11:30:20.312Z,6.50
2018-11-29T11:35:13.568Z,6.50
2018-11-29T11:40:11.294Z,6.60
2018-11-29T11:45:07.240Z,6.60
2018-11-29T11:50:00.509Z,6.60
2018-11-29T11:54:53.756Z,6.60
2018-11-29T11:59:47.019Z,6.70
2018-11-29T12:04:40.959Z,6.70
2018-11-29T12:09:34.199Z,6.70
2018-11-29T12:14:27.449Z,6.60
2018-11-29T12:19:20.731Z,6.50
2018-11-29T12:24:14.059Z,6.40
2018-11-29T12:29:07.719Z,6.40
2018-11-29T12:34:01.017Z,6.40
2018-11-29T12:38:54.683Z,6.50
2018-11-29T12:43:47.957Z,6.70
2018-11-29T12:48:41.263Z,6.90
2018-11-29T12:53:34.511Z,6.90
2018-11-29T12:58:27.820Z,7.00
2018-11-29T13:03:21.094Z,7.00
2018-11-29T13:08:14.353Z,7.00
2018-11-29T13:13:07.712Z,7.10
2018-11-29T13:18:04.178Z,7.00
2018-11-29T13:22:57.450Z,7.00
2018-11-29T13:27:50.791Z,7.10
2018-11-29T13:32:44.540Z,7.20
2018-11-29T13:37:37.810Z,7.20
2018-11-29T13:42:31.144Z,7.40
2018-11-29T13:47:24.396Z,7.50
2018-11-29T13:52:17.684Z,7.50
2018-11-29T13:57:10.992Z,7.50
2018-11-29T14:02:04.302Z,7.40
2018-11-29T14:06:57.577Z,7.40
2018-11-29T14:11:50.880Z,7.30
2018-11-29T14:16:44.182Z,7.30
2018-11-29T14:21:37.442Z,7.30
2018-11-29T14:26:30.711Z,7.30
2018-11-29T14:31:23.975Z,7.40
2018-11-29T14:36:17.240Z,7.40
2018-11-29T14:41:10.644Z,7.50
2018-11-29T14:46:04.163Z,7.50
2018-11-29T14:51:02.376Z,7.60
2018-11-29T14:55:50.851Z,7.70
2018-11-29T15:00:45.179Z,7.80
2018-11-29T15:05:38.545Z,7.80
2018-11-29T15:10:31.867Z,7.90
2018-11-29T15:15:25.787Z,7.90
2018-11-29T15:20:24.259Z,7.90
2018-11-29T15:25:17.605Z,7.90
2018-11-29T15:30:17.390Z,7.90
2018-11-29T15:35:10.755Z,8.00
2018-11-29T15:40:06.535Z,7.90
2018-11-29T15:44:59.837Z,7.90
2018-11-29T15:49:53.093Z,7.80
2018-11-29T15:54:46.555Z,7.90
2018-11-29T15:59:39.808Z,7.70
2018-11-29T16:04:33.057Z,7.70
2018-11-29T16:09:26.307Z,7.70
2018-11-29T16:14:19.623Z,7.60
2018-11-29T16:19:12.881Z,7.60
2018-11-29T16:24:06.207Z,7.50
2018-11-29T16:28:59.447Z,7.50
2018-11-29T16:33:52.764Z,7.60
2018-11-29T16:38:46.736Z,7.70
2018-11-29T16:43:39.948Z,7.70
2018-11-29T16:48:33.223Z,7.70
2018-11-29T16:53:26.480Z,7.70
2018-11-29T16:58:22.784Z,7.70
2018-11-29T17:03:16.032Z,7.70
2018-11-29T17:08:09.310Z,7.70
2018-11-29T17:13:08.207Z,7.70
2018-11-29T17:18:01.481Z,7.70
2018-11-29T17:22:54.722Z,7.60
2018-11-29T17:27:48.030Z,7.60
2018-11-29T17:32:41.760Z,7.60
2018-11-29T17:37:35.020Z,7.60
2018-11-29T17:42:28.253Z,7.60
2018-11-29T17:47:21.563Z,7.50
2018-11-29T17:52:14.860Z,7.50
2018-11-29T17:57:08.105Z,7.40
2018-11-29T18:02:01.388Z,7.40
2018-11-29T18:06:54.663Z,7.40
2018-11-29T18:11:47.911Z,7.50
2018-11-29T18:16:41.188Z,7.50
2018-11-29T18:21:34.451Z,7.60
2018-11-29T18:26:27.777Z,7.70
2018-11-29T18:31:21.076Z,7.70
2018-11-29T18:36:14.441Z,7.80
2018-11-29T18:41:07.629Z,7.80
2018-11-29T18:46:00.882Z,7.80
2018-11-29T18:50:54.226Z,7.90
2018-11-29T18:55:47.516Z,7.90
2018-11-29T19:00:40.850Z,7.90
2018-11-29T19:05:34.128Z,8.00
2018-11-29T19:10:27.386Z,8.00
2018-11-29T19:15:21.430Z,8.00
2018-11-29T19:20:14.712Z,8.00
2018-11-29T19:25:11.441Z,7.90
2018-11-29T19:30:10.343Z,7.80
2018-11-29T19:35:03.641Z,7.80
2018-11-29T19:39:56.888Z,8.00
2018-11-29T19:44:50.263Z,8.00
2018-11-29T19:49:43.491Z,8.00
2018-11-29T19:54:36.809Z,8.00
2018-11-29T19:59:30.079Z,7.90
2018-11-29T20:04:23.364Z,7.90
2018-11-29T20:09:16.617Z,7.90
2018-11-29T20:14:09.882Z,7.90
2018-11-29T20:19:03.248Z,7.90
2018-11-29T20:23:56.521Z,7.80
2018-11-29T20:28:49.785Z,7.90
2018-11-29T20:33:43.049Z,7.90
2018-11-29T20:38:36.345Z,8.00
2018-11-29T20:43:29.586Z,8.00
2018-11-29T20:48:28.503Z,8.10
2018-11-29T20:53:32.456Z,8.00
2018-11-29T20:58:25.672Z,8.00
2018-11-29T21:03:18.973Z,8.00
2018-11-29T21:08:12.554Z,8.00
2018-11-29T21:13:06.551Z,8.00
2018-11-29T21:17:59.813Z,8.10
2018-11-29T21:22:53.062Z,8.10
2018-11-29T21:27:46.330Z,8.10
2018-11-29T21:32:39.659Z,8.10
2018-11-29T21:37:32.949Z,8.10
2018-11-29T21:42:26.242Z,8.10
2018-11-29T21:47:19.487Z,8.30
2018-11-29T21:52:12.783Z,8.30
2018-11-29T21:57:06.061Z,8.30
2018-11-29T22:01:59.327Z,8.40
2018-11-29T22:06:52.609Z,8.40
2018-11-29T22:11:45.877Z,8.50
2018-11-29T22:16:39.167Z,8.50
2018-11-29T22:21:32.485Z,8.60
2018-11-29T22:26:25.744Z,8.40
2018-11-29T22:31:19.060Z,8.40
2018-11-29T22:36:12.360Z,8.40
2018-11-29T22:41:05.815Z,8.40
2018-11-29T22:45:59.266Z,8.40
2018-11-29T22:50:52.666Z,8.50
2018-11-29T22:55:45.986Z,8.30
2018-11-29T23:00:44.843Z,8.30
2018-11-29T23:05:38.125Z,8.30
2018-11-29T23:10:31.398Z,8.40
2018-11-29T23:15:24.764Z,8.40
2018-11-29T23:20:18.024Z,8.40
2018-11-29T23:25:13.523Z,8.40
2018-11-29T23:30:15.269Z,8.40
2018-11-29T23:35:08.697Z,8.30
2018-11-29T23:40:02.105Z,8.40
2018-11-29T23:44:55.410Z,8.40
2018-11-29T23:49:48.673Z,8.40
2018-11-29T23:54:41.927Z,8.40
2018-11-29T23:59:36.143Z,8.40
